createdAt,value
2023-03-05T00:01:15.208Z,1.33
2023-03-05T00:03:42.331Z,1.15
2023-03-05T00:06:09.600Z,1.05
2023-03-05T00:08:37.286Z,1.50
2023-03-05T00:11:08.498Z,1.45
2023-03-05T00:13:36.647Z,1.50
2023-03-05T00:16:10.513Z,1.45
2023-03-05T00:18:38.544Z,1.30
2023-03-05T00:21:16.738Z,1.50
2023-03-05T00:23:43.954Z,2.40
2023-03-05T00:26:11.024Z,1.70
2023-03-05T00:28:39.000Z,1.17
2023-03-05T00:31:06.079Z,1.23
2023-03-05T00:33:33.208Z,1.25
2023-03-05T00:36:02.432Z,0.93
2023-03-05T00:38:29.509Z,1.35
2023-03-05T00:40:56.540Z,1.80
2023-03-05T00:43:23.860Z,1.33
2023-03-05T00:45:50.871Z,1.08
2023-03-05T00:48:18.443Z,1.40
2023-03-05T00:50:46.074Z,1.80
2023-03-05T00:53:13.119Z,0.95
2023-03-05T00:55:40.211Z,1.90
2023-03-05T00:58:07.236Z,1.40
2023-03-05T01:00:34.321Z,2.90
2023-03-05T01:03:01.488Z,2.42
2023-03-05T01:05:28.583Z,1.17
2023-03-05T01:07:56.255Z,1.08
2023-03-05T01:10:27.528Z,0.70
2023-03-05T01:12:56.500Z,1.05
2023-03-05T01:15:24.824Z,0.50
2023-03-05T01:17:52.180Z,0.65
2023-03-05T01:20:22.114Z,0.70
2023-03-05T01:22:49.386Z,0.65
2023-03-05T01:25:17.680Z,0.63
2023-03-05T01:27:44.930Z,0.65
2023-03-05T01:30:13.866Z,0.85
2023-03-05T01:32:41.769Z,0.95
2023-03-05T01:35:15.261Z,0.63
2023-03-05T01:37:42.295Z,0.93
2023-03-05T01:40:16.445Z,0.88
2023-03-05T01:42:49.206Z,0.77
2023-03-05T01:45:18.521Z,0.47
2023-03-05T01:47:45.992Z,0.90
2023-03-05T01:50:17.488Z,0.47
2023-03-05T01:52:51.104Z,0.47
2023-03-05T01:55:23.625Z,0.50
2023-03-05T02:00:35.293Z,0.65
2023-03-05T02:03:06.502Z,0.40
2023-03-05T02:05:36.300Z,0.47
2023-03-05T02:08:09.276Z,0.50
2023-03-05T02:10:45.936Z,0.32
2023-03-05T02:13:25.199Z,0.50
2023-03-05T02:15:54.553Z,0.45
2023-03-05T02:18:22.291Z,0.82
2023-03-05T02:20:51.171Z,0.55
2023-03-05T02:23:21.005Z,0.55
2023-03-05T02:25:48.571Z,0.38
2023-03-05T02:28:53.883Z,0.65
2023-03-05T02:31:24.005Z,0.40
2023-03-05T02:33:52.192Z,0.50
2023-03-05T02:36:20.325Z,0.77
2023-03-05T02:38:47.838Z,0.65
2023-03-05T02:41:15.633Z,0.40
2023-03-05T02:43:42.969Z,0.50
2023-03-05T02:46:10.500Z,0.30
2023-03-05T02:48:39.879Z,0.52
2023-03-05T02:51:07.796Z,0.90
2023-03-05T02:53:35.451Z,0.32
2023-03-05T02:56:03.140Z,0.80
2023-03-05T02:58:32.935Z,1.23
2023-03-05T03:01:00.113Z,0.70
2023-03-05T03:03:27.468Z,0.80
2023-03-05T03:05:54.481Z,1.30
2023-03-05T03:08:21.459Z,1.13
2023-03-05T03:10:48.432Z,0.95
2023-03-05T03:13:15.479Z,0.70
2023-03-05T03:15:42.508Z,0.50
2023-03-05T03:18:09.747Z,0.68
2023-03-05T03:20:40.108Z,1.13
2023-03-05T03:23:07.305Z,0.70
2023-03-05T03:25:35.145Z,0.70
2023-03-05T03:28:02.240Z,0.75
2023-03-05T03:30:29.337Z,0.75
2023-03-05T03:32:56.318Z,0.43
2023-03-05T03:35:23.391Z,0.90
2023-03-05T03:37:50.441Z,0.73
2023-03-05T03:40:17.735Z,0.82
2023-03-05T03:42:44.837Z,0.55
2023-03-05T03:45:12.530Z,0.40
2023-03-05T03:47:39.524Z,0.40
2023-03-05T03:50:06.956Z,0.57
2023-03-05T03:52:34.084Z,0.55
2023-03-05T03:55:01.503Z,0.50
2023-03-05T03:57:29.970Z,0.82
2023-03-05T03:59:56.982Z,0.63
2023-03-05T04:02:24.072Z,0.82
2023-03-05T04:04:52.021Z,0.70
2023-03-05T04:07:19.522Z,0.68
2023-03-05T04:09:46.599Z,0.95
2023-03-05T04:12:17.873Z,1.42
2023-03-05T04:14:46.249Z,1.15
2023-03-05T04:17:14.290Z,2.35
2023-03-05T04:19:41.997Z,1.88
2023-03-05T04:22:14.075Z,1.63
2023-03-05T04:24:41.357Z,1.80
2023-03-05T04:27:08.815Z,2.50
2023-03-05T04:29:36.094Z,2.30
2023-03-05T04:32:03.773Z,2.05
2023-03-05T04:34:30.835Z,1.80
2023-03-05T04:36:57.904Z,1.67
2023-03-05T04:39:25.178Z,1.80
2023-03-05T04:41:52.229Z,2.38
2023-03-05T04:44:19.297Z,1.95
2023-03-05T04:46:46.440Z,2.03
2023-03-05T04:49:13.481Z,3.15
2023-03-05T04:51:40.487Z,2.47
2023-03-05T04:54:08.076Z,3.50
2023-03-05T04:56:35.112Z,2.13
2023-03-05T04:59:02.097Z,3.33
2023-03-05T05:01:29.223Z,2.80
2023-03-05T05:03:56.239Z,4.00
2023-03-05T05:06:23.297Z,3.22
2023-03-05T05:08:50.303Z,3.58
2023-03-05T05:11:18.098Z,3.45
2023-03-05T05:13:45.166Z,3.90
2023-03-05T05:16:12.270Z,3.58
2023-03-05T05:18:39.357Z,3.47
2023-03-05T05:21:10.614Z,4.15
2023-03-05T05:23:37.757Z,4.95
2023-03-05T05:26:06.769Z,4.57
2023-03-05T05:28:35.048Z,4.05
2023-03-05T05:31:07.687Z,4.38
2023-03-05T05:33:34.782Z,4.00
2023-03-05T05:36:04.402Z,4.47
2023-03-05T05:38:31.735Z,4.18
2023-03-05T05:41:07.184Z,4.45
2023-03-05T05:43:34.191Z,4.10
2023-03-05T05:46:08.175Z,2.70
2023-03-05T05:48:36.200Z,2.55
2023-03-05T05:51:08.368Z,1.95
2023-03-05T05:53:35.674Z,1.40
2023-03-05T05:56:05.055Z,1.65
2023-03-05T05:58:32.145Z,1.88
2023-03-05T06:00:59.269Z,2.05
2023-03-05T06:03:26.404Z,1.85
2023-03-05T06:05:53.802Z,2.17
2023-03-05T06:08:20.825Z,2.17
2023-03-05T06:10:54.387Z,2.15
2023-03-05T06:13:21.480Z,2.47
2023-03-05T06:16:02.725Z,1.88
2023-03-05T06:18:30.672Z,1.70
2023-03-05T06:20:59.856Z,1.20
2023-03-05T06:23:27.820Z,1.20
2023-03-05T06:25:55.491Z,1.10
2023-03-05T06:28:22.529Z,1.70
2023-03-05T06:30:49.607Z,1.30
2023-03-05T06:33:17.536Z,0.98
2023-03-05T06:35:44.626Z,1.30
2023-03-05T06:38:11.640Z,1.55
2023-03-05T06:40:39.706Z,0.98
2023-03-05T06:43:07.001Z,1.67
2023-03-05T06:45:34.070Z,2.08
2023-03-05T06:48:01.055Z,2.00
2023-03-05T06:50:28.399Z,2.08
2023-03-05T06:52:55.474Z,2.38
2023-03-05T06:55:22.456Z,4.05
2023-03-05T06:57:49.449Z,3.72
2023-03-05T07:00:16.967Z,4.53
2023-03-05T07:02:44.051Z,5.68
2023-03-05T07:05:11.245Z,4.50
2023-03-05T07:07:38.298Z,5.35
2023-03-05T07:10:07.498Z,7.20
2023-03-05T07:12:35.152Z,7.50
2023-03-05T07:15:02.239Z,8.73
2023-03-05T07:17:29.785Z,10.02
2023-03-05T07:19:56.770Z,9.80
2023-03-05T07:22:23.800Z,10.88
2023-03-05T07:24:51.056Z,11.57
2023-03-05T07:27:18.060Z,10.77
2023-03-05T07:29:45.093Z,11.18
2023-03-05T07:32:12.110Z,11.35
2023-03-05T07:34:39.180Z,11.95
2023-03-05T07:37:06.254Z,10.85
2023-03-05T07:39:33.366Z,9.23
2023-03-05T07:42:00.374Z,10.60
2023-03-05T07:44:38.892Z,9.57
2023-03-05T07:47:06.221Z,8.65
2023-03-05T07:49:33.200Z,8.40
2023-03-05T07:52:00.381Z,7.15
2023-03-05T07:54:27.355Z,8.82
2023-03-05T07:56:54.701Z,6.95
2023-03-05T07:59:21.664Z,7.47
2023-03-05T08:01:48.637Z,5.78
2023-03-05T08:04:15.663Z,5.72
2023-03-05T08:06:42.757Z,5.65
2023-03-05T08:09:09.818Z,5.78
2023-03-05T08:11:36.853Z,5.10
2023-03-05T08:14:04.485Z,5.63
2023-03-05T08:16:31.952Z,5.35
2023-03-05T08:18:59.067Z,4.57
2023-03-05T08:21:33.732Z,4.70
2023-03-05T08:24:07.814Z,4.18
2023-03-05T08:26:38.358Z,3.97
2023-03-05T08:29:07.482Z,4.35
2023-03-05T08:31:35.512Z,3.63
2023-03-05T08:34:03.712Z,3.28
2023-03-05T08:36:30.855Z,3.20
2023-03-05T08:38:59.649Z,3.40
2023-03-05T08:41:26.950Z,3.05
2023-03-05T08:43:54.003Z,2.75
2023-03-05T08:46:21.069Z,2.25
2023-03-05T08:48:48.180Z,2.13
2023-03-05T08:51:17.956Z,2.33
2023-03-05T08:53:46.302Z,1.85
2023-03-05T08:56:14.513Z,2.08
2023-03-05T08:58:42.063Z,1.58
2023-03-05T09:01:09.233Z,1.50
2023-03-05T09:03:36.497Z,1.85
2023-03-05T09:06:06.734Z,1.42
2023-03-05T09:08:35.568Z,1.88
2023-03-05T09:11:05.193Z,1.60
2023-03-05T09:13:32.914Z,1.52
2023-03-05T09:16:08.911Z,1.27
2023-03-05T09:18:36.698Z,1.27
2023-03-05T09:21:08.673Z,1.42
2023-03-05T09:23:35.680Z,1.73
2023-03-05T09:26:05.896Z,1.40
2023-03-05T09:28:32.969Z,2.05
2023-03-05T09:31:04.496Z,0.98
2023-03-05T09:33:32.930Z,0.88
2023-03-05T09:36:00.928Z,0.90
2023-03-05T09:38:29.081Z,1.17
2023-03-05T09:41:03.446Z,0.88
2023-03-05T09:43:44.137Z,0.95
2023-03-05T09:46:29.590Z,1.30
2023-03-05T09:49:13.698Z,1.58
2023-03-05T09:51:46.404Z,1.50
2023-03-05T09:54:21.416Z,1.52
2023-03-05T09:56:53.157Z,1.90
2023-03-05T09:59:29.548Z,2.17
2023-03-05T10:02:01.384Z,1.70
2023-03-05T10:04:52.408Z,2.22
2023-03-05T10:07:37.256Z,3.42
2023-03-05T10:10:15.546Z,2.33
2023-03-05T10:12:45.714Z,2.20
2023-03-05T10:15:16.274Z,2.10
2023-03-05T10:18:01.595Z,2.42
2023-03-05T10:21:22.036Z,1.80
2023-03-05T10:24:06.185Z,2.67
2023-03-05T10:26:57.529Z,1.98
2023-03-05T10:29:43.254Z,2.53
2023-03-05T10:32:29.460Z,1.58
2023-03-05T10:35:14.946Z,2.28
2023-03-05T10:37:51.590Z,1.45
2023-03-05T10:40:18.597Z,1.73
2023-03-05T10:43:16.065Z,1.27
2023-03-05T10:45:54.492Z,1.48
2023-03-05T10:49:09.696Z,1.77
2023-03-05T10:51:44.005Z,1.45
2023-03-05T10:54:29.687Z,1.52
2023-03-05T10:57:12.367Z,3.08
2023-03-05T10:59:44.251Z,1.13
2023-03-05T11:02:11.547Z,1.90
2023-03-05T11:04:40.962Z,1.50
2023-03-05T11:07:16.774Z,1.55
2023-03-05T11:10:04.246Z,1.90
2023-03-05T11:12:37.162Z,1.90
2023-03-05T11:15:10.143Z,1.50
2023-03-05T11:17:48.865Z,1.52
2023-03-05T11:20:28.774Z,1.73
2023-03-05T11:23:05.894Z,1.98
2023-03-05T11:25:34.685Z,1.80
2023-03-05T11:28:03.047Z,2.10
2023-03-05T11:30:36.364Z,1.50
2023-03-05T11:33:19.368Z,1.75
2023-03-05T11:35:48.078Z,2.80
2023-03-05T11:38:19.522Z,2.20
2023-03-05T11:40:47.393Z,1.85
2023-03-05T11:43:21.455Z,1.67
2023-03-05T11:45:55.583Z,2.50
2023-03-05T11:48:30.451Z,2.15
2023-03-05T11:51:06.174Z,1.67
2023-03-05T11:53:36.690Z,2.08
2023-03-05T11:56:19.616Z,2.25
2023-03-05T11:58:52.151Z,2.28
2023-03-05T12:03:52.815Z,3.05
2023-03-05T12:06:33.879Z,2.55
2023-03-05T12:09:07.581Z,4.10
2023-03-05T12:11:36.463Z,3.55
2023-03-05T12:14:17.832Z,3.05
2023-03-05T12:17:01.810Z,3.22
2023-03-05T12:19:32.763Z,2.25
2023-03-05T12:22:00.411Z,3.35
2023-03-05T12:24:28.470Z,2.58
2023-03-05T12:27:04.748Z,2.47
2023-03-05T12:29:49.893Z,2.42
2023-03-05T12:32:23.206Z,2.90
2023-03-05T12:34:57.277Z,2.22
2023-03-05T12:37:24.175Z,2.47
2023-03-05T12:40:07.115Z,2.28
2023-03-05T12:42:34.017Z,2.40
2023-03-05T12:45:11.625Z,2.53
2023-03-05T13:04:32.268Z,2.47
2023-03-05T13:07:05.795Z,2.55
2023-03-05T13:09:36.173Z,3.47
2023-03-05T13:12:11.328Z,3.20
2023-03-05T13:15:14.888Z,2.70
2023-03-05T13:17:54.332Z,3.22
2023-03-05T13:20:26.799Z,2.85
2023-03-05T13:23:18.665Z,2.50
2023-03-05T13:25:56.441Z,2.60
2023-03-05T13:28:25.164Z,2.92
2023-03-05T13:30:56.350Z,2.80
2023-03-05T13:33:28.213Z,2.75
2023-03-05T13:35:55.660Z,3.00
2023-03-05T13:38:28.393Z,3.08
2023-03-05T13:41:04.096Z,3.35
2023-03-05T13:43:32.761Z,3.65
2023-03-05T13:45:59.893Z,3.15
2023-03-05T13:48:28.513Z,3.10
2023-03-05T13:50:57.711Z,2.83
2023-03-05T13:53:30.515Z,3.83
2023-03-05T13:56:06.524Z,3.38
2023-03-05T13:58:48.555Z,2.92
2023-03-05T14:01:28.834Z,3.60
2023-03-05T14:04:07.058Z,3.45
2023-03-05T14:06:41.831Z,3.72
2023-03-05T14:09:20.333Z,4.88
2023-03-05T14:12:03.064Z,3.83
2023-03-05T14:14:34.724Z,3.72
2023-03-05T14:17:23.621Z,4.00
2023-03-05T14:19:50.919Z,3.55
2023-03-05T14:22:38.169Z,3.90
2023-03-05T14:25:06.992Z,4.50
2023-03-05T14:27:36.293Z,4.47
2023-03-05T14:30:05.076Z,4.20
2023-03-05T14:32:35.837Z,4.85
2023-03-05T14:35:05.782Z,4.47
2023-03-05T14:37:36.806Z,4.75
2023-03-05T14:40:07.293Z,4.20
2023-03-05T14:42:39.437Z,5.18
2023-03-05T14:45:10.793Z,4.60
2023-03-05T14:47:37.905Z,4.85
2023-03-05T14:50:06.546Z,4.70
2023-03-05T14:52:34.735Z,4.78
2023-03-05T14:55:02.148Z,3.85
2023-03-05T14:57:31.691Z,4.22
2023-03-05T14:59:58.877Z,5.15
2023-03-05T15:02:26.897Z,5.18
2023-03-05T15:04:53.964Z,4.80
2023-03-05T15:07:28.508Z,4.90
2023-03-05T15:09:55.841Z,4.65
2023-03-05T15:12:24.635Z,4.72
2023-03-05T15:14:54.135Z,4.30
2023-03-05T15:17:25.773Z,4.55
2023-03-05T15:19:53.736Z,4.83
2023-03-05T15:22:21.080Z,4.70
2023-03-05T15:24:48.119Z,4.45
2023-03-05T15:27:15.092Z,4.90
2023-03-05T15:29:42.120Z,5.15
2023-03-05T15:32:09.293Z,4.70
2023-03-05T15:34:36.575Z,5.28
2023-03-05T15:37:04.222Z,4.95
2023-03-05T15:39:31.503Z,5.28
2023-03-05T15:41:58.997Z,5.78
2023-03-05T15:44:26.187Z,5.55
2023-03-05T15:46:53.354Z,5.55
2023-03-05T15:49:22.591Z,5.30
2023-03-05T15:51:50.703Z,6.00
2023-03-05T15:54:18.571Z,5.95
2023-03-05T15:56:45.582Z,6.70
2023-03-05T15:59:13.431Z,6.55
2023-03-05T16:01:45.603Z,6.43
2023-03-05T16:04:14.262Z,5.82
2023-03-05T16:06:41.943Z,7.40
2023-03-05T16:09:09.377Z,7.35
2023-03-05T16:11:39.680Z,9.55
2023-03-05T16:14:09.055Z,8.35
2023-03-05T16:16:36.469Z,8.55
2023-03-05T16:19:06.158Z,8.68
2023-03-05T16:21:33.309Z,8.10
2023-03-05T16:24:00.334Z,7.85
2023-03-05T16:26:27.303Z,8.68
2023-03-05T16:28:54.484Z,8.20
2023-03-05T16:31:21.530Z,8.23
2023-03-05T16:33:48.570Z,7.30
2023-03-05T16:36:22.574Z,7.85
2023-03-05T16:38:51.671Z,8.07
2023-03-05T16:41:21.949Z,8.40
2023-03-05T16:43:51.367Z,7.68
2023-03-05T16:46:18.408Z,8.15
2023-03-05T16:48:46.087Z,8.32
2023-03-05T16:51:13.091Z,8.52
2023-03-05T16:53:40.547Z,8.45
2023-03-05T16:56:09.598Z,8.82
2023-03-05T16:58:38.253Z,8.05
2023-03-05T17:01:10.456Z,8.85
2023-03-05T17:03:41.640Z,8.63
2023-03-05T17:06:13.657Z,8.38
2023-03-05T17:08:42.668Z,8.15
2023-03-05T17:11:11.935Z,8.45
2023-03-05T17:13:40.430Z,8.65
2023-03-05T17:16:09.486Z,8.23
2023-03-05T17:18:36.874Z,9.45
2023-03-05T17:21:07.042Z,7.65
2023-03-05T17:23:36.078Z,8.05
2023-03-05T17:26:05.237Z,8.20
2023-03-05T17:28:32.752Z,7.88
2023-03-05T17:31:01.315Z,7.75
2023-03-05T17:33:29.010Z,7.82
2023-03-05T17:35:56.396Z,6.90
2023-03-05T17:38:24.223Z,6.53
2023-03-05T17:40:51.312Z,6.47
2023-03-05T17:43:18.945Z,7.85
2023-03-05T17:45:47.298Z,8.30
2023-03-05T17:48:15.922Z,10.63
2023-03-05T17:50:44.824Z,12.32
2023-03-05T17:53:12.566Z,12.27
2023-03-05T17:55:40.355Z,10.70
2023-03-05T17:58:08.039Z,9.20
2023-03-05T18:00:36.097Z,12.80
2023-03-05T18:03:04.011Z,11.95
2023-03-05T18:05:31.652Z,10.82
2023-03-05T18:08:00.019Z,11.60
2023-03-05T18:10:28.487Z,10.88
2023-03-05T18:12:56.013Z,10.05
2023-03-05T18:15:25.840Z,9.70
2023-03-05T18:17:53.210Z,9.85
2023-03-05T18:20:30.086Z,10.00
2023-03-05T18:22:58.842Z,9.95
2023-03-05T18:25:30.768Z,9.30
2023-03-05T18:28:02.483Z,8.90
2023-03-05T18:30:31.018Z,8.67
2023-03-05T18:32:58.794Z,10.82
2023-03-05T18:35:26.972Z,9.82
2023-03-05T18:37:54.028Z,10.50
2023-03-05T18:40:23.746Z,11.38
2023-03-05T18:42:51.634Z,10.02
2023-03-05T18:45:21.130Z,11.65
2023-03-05T18:47:53.791Z,11.60
2023-03-05T18:50:22.837Z,12.10
2023-03-05T18:52:49.941Z,11.18
2023-03-05T18:55:19.421Z,13.50
2023-03-05T18:57:47.009Z,12.27
2023-03-05T19:00:16.882Z,11.27
2023-03-05T19:02:43.927Z,12.30
2023-03-05T19:05:13.214Z,12.98
2023-03-05T19:07:40.438Z,12.80
2023-03-05T19:10:10.089Z,12.45
2023-03-05T19:12:45.211Z,12.95
2023-03-05T19:15:13.304Z,12.70
2023-03-05T19:17:40.457Z,12.90
2023-03-05T19:20:10.911Z,12.77
2023-03-05T19:22:38.033Z,14.20
2023-03-05T19:25:06.312Z,12.75
2023-03-05T19:27:33.348Z,13.23
2023-03-05T19:30:00.784Z,12.85
2023-03-05T19:32:28.104Z,13.57
2023-03-05T19:34:57.141Z,13.15
2023-03-05T19:37:25.464Z,14.32
2023-03-05T19:39:52.902Z,14.05
2023-03-05T19:42:20.393Z,13.95
2023-03-05T19:44:47.437Z,13.65
2023-03-05T19:47:14.768Z,13.80
2023-03-05T19:49:41.834Z,13.98
2023-03-05T19:52:08.952Z,13.15
2023-03-05T19:54:36.036Z,12.65
2023-03-05T19:57:03.109Z,13.13
2023-03-05T19:59:30.147Z,13.43
2023-03-05T20:01:57.327Z,12.95
2023-03-05T20:04:25.038Z,13.07
2023-03-05T20:06:52.327Z,12.40
2023-03-05T20:09:19.642Z,12.63
2023-03-05T20:11:47.252Z,13.07
2023-03-05T20:14:14.658Z,12.85
2023-03-05T20:16:43.072Z,11.98
2023-03-05T20:19:16.779Z,12.70
2023-03-05T20:21:44.777Z,12.82
2023-03-05T20:24:16.335Z,13.50
2023-03-05T20:26:44.667Z,13.05
2023-03-05T20:29:14.874Z,13.30
2023-03-05T20:31:44.620Z,13.60
2023-03-05T20:34:14.705Z,12.55
2023-03-05T20:36:41.840Z,13.15
2023-03-05T20:39:08.922Z,13.13
2023-03-05T20:41:38.177Z,13.40
2023-03-05T20:44:06.123Z,13.80
2023-03-05T20:46:49.581Z,13.45
2023-03-05T20:49:16.764Z,13.77
2023-03-05T20:51:43.780Z,14.65
2023-03-05T20:54:13.162Z,14.18
2023-03-05T20:56:40.327Z,13.82
2023-03-05T20:59:08.695Z,14.45
2023-03-05T21:01:38.018Z,14.90
2023-03-05T21:04:05.763Z,14.70
2023-03-05T21:06:33.500Z,14.27
2023-03-05T21:09:00.829Z,14.80
2023-03-05T21:11:33.280Z,16.00
2023-03-05T21:14:00.902Z,14.90
2023-03-05T21:16:28.129Z,15.38
2023-03-05T21:18:57.141Z,14.80
2023-03-05T21:21:24.265Z,15.35
2023-03-05T21:23:52.057Z,14.75
2023-03-05T21:26:19.865Z,15.77
2023-03-05T21:28:46.924Z,14.75
2023-03-05T21:31:20.456Z,15.10
2023-03-05T21:33:48.856Z,16.92
2023-03-05T21:36:19.021Z,15.35
2023-03-05T21:38:48.304Z,16.25
2023-03-05T21:41:15.984Z,16.20
2023-03-05T21:43:43.275Z,17.75
2023-03-05T21:46:10.849Z,17.80
2023-03-05T21:48:38.119Z,16.40
2023-03-05T21:51:08.557Z,17.08
2023-03-05T21:53:35.929Z,16.92
2023-03-05T21:56:19.487Z,17.80
2023-03-05T21:58:47.576Z,16.50
2023-03-05T22:01:24.488Z,17.23
2023-03-05T22:03:51.818Z,16.77
2023-03-05T22:06:19.829Z,19.08
2023-03-05T22:08:47.242Z,17.88
2023-03-05T22:11:16.618Z,18.98
2023-03-05T22:13:43.913Z,18.58
2023-03-05T22:16:11.130Z,19.77
2023-03-05T22:18:38.204Z,17.70
2023-03-05T22:21:05.704Z,18.80
2023-03-05T22:23:36.663Z,17.70
2023-03-05T22:26:06.673Z,18.30
2023-03-05T22:28:34.940Z,18.88
2023-03-05T22:31:02.225Z,19.23
2023-03-05T22:33:29.689Z,17.77
2023-03-05T22:35:57.266Z,18.52
2023-03-05T22:38:25.336Z,18.90
2023-03-05T22:40:52.614Z,18.70
2023-03-05T22:43:20.340Z,17.63
2023-03-05T22:45:47.702Z,18.40
2023-03-05T22:48:15.407Z,16.85
2023-03-05T22:50:44.175Z,17.55
2023-03-05T22:53:12.474Z,18.33
2023-03-05T22:55:42.731Z,18.02
2023-03-05T22:58:09.944Z,18.42
2023-03-05T23:00:37.562Z,17.67
2023-03-05T23:03:06.267Z,18.58
2023-03-05T23:05:34.451Z,17.63
2023-03-05T23:08:01.639Z,17.63
2023-03-05T23:10:29.235Z,18.25
2023-03-05T23:12:59.121Z,18.35
2023-03-05T23:15:35.100Z,16.83
2023-03-05T23:18:03.064Z,17.30
2023-03-05T23:20:33.968Z,18.98
2023-03-05T23:23:02.194Z,17.35
2023-03-05T23:25:31.475Z,17.23
2023-03-05T23:27:59.307Z,18.15
2023-03-05T23:30:28.146Z,18.30
2023-03-05T23:32:57.766Z,17.40
2023-03-05T23:35:40.048Z,17.45
2023-03-05T23:38:11.719Z,18.33
2023-03-05T23:40:45.208Z,18.13
2023-03-05T23:43:13.299Z,17.40
2023-03-05T23:45:42.143Z,18.38
2023-03-05T23:48:09.778Z,18.88
2023-03-05T23:50:39.804Z,18.52
2023-03-05T23:53:08.090Z,16.85
2023-03-05T23:55:44.580Z,18.15
2023-03-05T23:58:11.998Z,17.65
